sensor_id;sensor_type;location;lat;lon;timestamp;pressure;altitude;pressure_sealevel;temperature;humidity
15050;BME280;7622;42.724;23.250;2022-11-20T00:00:07;93937.69;;;17.96;100.00
15050;BME280;7622;42.724;23.250;2022-11-20T00:02:34;93919.28;;;17.96;100.00
15050;BME280;7622;42.724;23.250;2022-11-20T00:05:01;93951.22;;;17.93;100.00
15050;BME280;7622;42.724;23.250;2022-11-20T00:07:27;93945.56;;;18.02;100.00
15050;BME280;7622;42.724;23.250;2022-11-20T00:09:54;93940.66;;;18.13;100.00
15050;BME280;7622;42.724;23.250;2022-11-20T00:12:21;93904.31;;;18.03;100.00
15050;BME280;7622;42.724;23.250;2022-11-20T00:14:49;93931.00;;;18.00;100.00
15050;BME280;7622;42.724;23.250;2022-11-20T00:17:16;93918.81;;;18.12;100.00
15050;BME280;7622;42.724;23.250;2022-11-20T00:19:43;93914.59;;;18.11;100.00
15050;BME280;7622;42.724;23.250;2022-11-20T00:22:10;93912.69;;;18.31;100.00
15050;BME280;7622;42.724;23.250;2022-11-20T00:24:37;93933.75;;;18.31;100.00
15050;BME280;7622;42.724;23.250;2022-11-20T00:27:03;93933.13;;;18.29;100.00
15050;BME280;7622;42.724;23.250;2022-11-20T00:29:30;93924.47;;;18.22;100.00
15050;BME280;7622;42.724;23.250;2022-11-20T00:31:58;93930.13;;;18.19;100.00
15050;BME280;7622;42.724;23.250;2022-11-20T00:34:25;93928.47;;;18.31;100.00
15050;BME280;7622;42.724;23.250;2022-11-20T00:36:52;93931.69;;;18.33;100.00
15050;BME280;7622;42.724;23.250;2022-11-20T00:39:18;93933.75;;;18.31;100.00
15050;BME280;7622;42.724;23.250;2022-11-20T00:41:45;93927.69;;;18.24;100.00
15050;BME280;7622;42.724;23.250;2022-11-20T00:44:12;93919.59;;;18.19;100.00
15050;BME280;7622;42.724;23.250;2022-11-20T00:46:39;93934.78;;;18.17;100.00
15050;BME280;7622;42.724;23.250;2022-11-20T00:49:07;93931.75;;;18.20;100.00
15050;BME280;7622;42.724;23.250;2022-11-20T00:51:33;93915.19;;;18.13;100.00
15050;BME280;7622;42.724;23.250;2022-11-20T00:54:00;93917.00;;;18.13;100.00
15050;BME280;7622;42.724;23.250;2022-11-20T00:56:27;93934.19;;;18.15;100.00
15050;BME280;7622;42.724;23.250;2022-11-20T00:58:54;93872.44;;;17.80;100.00
15050;BME280;7622;42.724;23.250;2022-11-20T01:01:22;93918.25;;;18.03;100.00
15050;BME280;7622;42.724;23.250;2022-11-20T01:03:51;93922.09;;;18.01;100.00
15050;BME280;7622;42.724;23.250;2022-11-20T01:06:21;93898.44;;;18.01;100.00
15050;BME280;7622;42.724;23.250;2022-11-20T01:08:49;93913.59;;;17.99;100.00
15050;BME280;7622;42.724;23.250;2022-11-20T01:11:18;93899.91;;;17.90;100.00
15050;BME280;7622;42.724;23.250;2022-11-20T01:13:46;93899.09;;;17.90;100.00
15050;BME280;7622;42.724;23.250;2022-11-20T01:16:15;93896.66;;;17.95;100.00
15050;BME280;7622;42.724;23.250;2022-11-20T01:18:44;93881.91;;;17.87;100.00
15050;BME280;7622;42.724;23.250;2022-11-20T01:21:13;93893.88;;;17.83;100.00
15050;BME280;7622;42.724;23.250;2022-11-20T01:23:42;93900.50;;;17.86;100.00
15050;BME280;7622;42.724;23.250;2022-11-20T01:26:11;93895.88;;;17.81;100.00
15050;BME280;7622;42.724;23.250;2022-11-20T01:28:39;93906.78;;;17.85;100.00
15050;BME280;7622;42.724;23.250;2022-11-20T01:31:14;93885.34;;;17.88;100.00
15050;BME280;7622;42.724;23.250;2022-11-20T01:33:42;93895.03;;;17.94;100.00
15050;BME280;7622;42.724;23.250;2022-11-20T01:36:10;93901.91;;;17.95;100.00
15050;BME280;7622;42.724;23.250;2022-11-20T01:38:37;93887.75;;;17.96;100.00
15050;BME280;7622;42.724;23.250;2022-11-20T01:41:06;93896.22;;;18.04;100.00
15050;BME280;7622;42.724;23.250;2022-11-20T01:43:34;93869.19;;;17.91;100.00
15050;BME280;7622;42.724;23.250;2022-11-20T01:46:06;93882.84;;;18.06;100.00
15050;BME280;7622;42.724;23.250;2022-11-20T01:48:37;93903.69;;;18.01;100.00
15050;BME280;7622;42.724;23.250;2022-11-20T01:51:09;93912.38;;;18.08;100.00
15050;BME280;7622;42.724;23.250;2022-11-20T01:53:39;93903.88;;;18.06;100.00
15050;BME280;7622;42.724;23.250;2022-11-20T01:56:09;93906.75;;;18.04;100.00
15050;BME280;7622;42.724;23.250;2022-11-20T01:58:41;93900.28;;;17.94;100.00
15050;BME280;7622;42.724;23.250;2022-11-20T02:01:09;93890.81;;;17.86;100.00
15050;BME280;7622;42.724;23.250;2022-11-20T02:03:36;93903.69;;;18.01;100.00
15050;BME280;7622;42.724;23.250;2022-11-20T02:06:08;93896.63;;;18.01;100.00
15050;BME280;7622;42.724;23.250;2022-11-20T02:08:38;93886.13;;;17.95;100.00
15050;BME280;7622;42.724;23.250;2022-11-20T02:11:06;93893.00;;;17.96;100.00
15050;BME280;7622;42.724;23.250;2022-11-20T02:13:33;93907.13;;;18.01;100.00
15050;BME280;7622;42.724;23.250;2022-11-20T02:16:10;93899.88;;;18.03;100.00
15050;BME280;7622;42.724;23.250;2022-11-20T02:18:38;93893.84;;;17.90;100.00
15050;BME280;7622;42.724;23.250;2022-11-20T02:21:07;93891.59;;;17.93;100.00
15050;BME280;7622;42.724;23.250;2022-11-20T02:23:38;93897.47;;;17.95;100.00
15050;BME280;7622;42.724;23.250;2022-11-20T02:26:10;93908.78;;;17.96;100.00
15050;BME280;7622;42.724;23.250;2022-11-20T02:28:39;93880.91;;;17.88;100.00
15050;BME280;7622;42.724;23.250;2022-11-20T02:31:06;93892.59;;;17.92;100.00
15050;BME280;7622;42.724;23.250;2022-11-20T02:33:33;93895.03;;;17.94;100.00
15050;BME280;7622;42.724;23.250;2022-11-20T02:36:00;93905.50;;;18.07;100.00
15050;BME280;7622;42.724;23.250;2022-11-20T02:38:26;93895.47;;;17.91;100.00
15050;BME280;7622;42.724;23.250;2022-11-20T02:40:53;93919.66;;;18.06;100.00
15050;BME280;7622;42.724;23.250;2022-11-20T02:43:22;93899.47;;;18.00;100.00
15050;BME280;7622;42.724;23.250;2022-11-20T02:45:48;93911.75;;;18.06;100.00
15050;BME280;7622;42.724;23.250;2022-11-20T02:48:15;93900.47;;;17.99;100.00
15050;BME280;7622;42.724;23.250;2022-11-20T02:50:42;93909.97;;;18.00;100.00
15050;BME280;7622;42.724;23.250;2022-11-20T02:53:09;93932.44;;;17.96;100.00
15050;BME280;7622;42.724;23.250;2022-11-20T02:55:36;93917.69;;;17.95;100.00
15050;BME280;7622;42.724;23.250;2022-11-20T02:58:03;93933.47;;;17.88;100.00
15050;BME280;7622;42.724;23.250;2022-11-20T03:00:31;93924.16;;;17.86;100.00
15050;BME280;7622;42.724;23.250;2022-11-20T03:02:59;93926.19;;;17.90;100.00
15050;BME280;7622;42.724;23.250;2022-11-20T03:05:25;93931.03;;;17.87;100.00
15050;BME280;7622;42.724;23.250;2022-11-20T03:07:52;93939.56;;;17.76;100.00
15050;BME280;7622;42.724;23.250;2022-11-20T03:10:19;93933.28;;;17.77;100.00
15050;BME280;7622;42.724;23.250;2022-11-20T03:12:45;93938.75;;;17.68;100.00
15050;BME280;7622;42.724;23.250;2022-11-20T03:15:12;93924.38;;;17.51;100.00
15050;BME280;7622;42.724;23.250;2022-11-20T03:17:40;93935.06;;;17.56;100.00
15050;BME280;7622;42.724;23.250;2022-11-20T03:20:08;93943.56;;;17.58;100.00
15050;BME280;7622;42.724;23.250;2022-11-20T03:22:35;93941.38;;;17.55;100.00
15050;BME280;7622;42.724;23.250;2022-11-20T03:25:02;93933.06;;;17.58;100.00
15050;BME280;7622;42.724;23.250;2022-11-20T03:27:32;93939.75;;;17.54;100.00
15050;BME280;7622;42.724;23.250;2022-11-20T03:29:59;93954.88;;;17.52;100.00
15050;BME280;7622;42.724;23.250;2022-11-20T03:32:25;93953.69;;;17.35;100.00
15050;BME280;7622;42.724;23.250;2022-11-20T03:34:53;93913.28;;;17.10;100.00
15050;BME280;7622;42.724;23.250;2022-11-20T03:37:20;93955.31;;;17.49;100.00
15050;BME280;7622;42.724;23.250;2022-11-20T03:39:47;93967.63;;;17.49;100.00
15050;BME280;7622;42.724;23.250;2022-11-20T03:42:14;93973.47;;;17.44;100.00
15050;BME280;7622;42.724;23.250;2022-11-20T03:44:54;93969.84;;;17.32;100.00
15050;BME280;7622;42.724;23.250;2022-11-20T03:47:21;93980.97;;;17.47;100.00
15050;BME280;7622;42.724;23.250;2022-11-20T03:49:48;93975.09;;;17.45;100.00
15050;BME280;7622;42.724;23.250;2022-11-20T03:52:16;93987.22;;;17.46;100.00
15050;BME280;7622;42.724;23.250;2022-11-20T03:54:43;93982.97;;;17.45;100.00
15050;BME280;7622;42.724;23.250;2022-11-20T03:57:10;93993.09;;;17.35;100.00
15050;BME280;7622;42.724;23.250;2022-11-20T03:59:36;93997.28;;;17.29;100.00
15050;BME280;7622;42.724;23.250;2022-11-20T04:02:03;93994.47;;;17.31;100.00
15050;BME280;7622;42.724;23.250;2022-11-20T04:04:30;94003.16;;;17.25;100.00
15050;BME280;7622;42.724;23.250;2022-11-20T04:06:57;94008.59;;;17.30;100.00
15050;BME280;7622;42.724;23.250;2022-11-20T04:09:25;93987.59;;;17.37;100.00
15050;BME280;7622;42.724;23.250;2022-11-20T04:11:52;93990.47;;;17.35;100.00
15050;BME280;7622;42.724;23.250;2022-11-20T04:14:18;93984.59;;;17.33;100.00
15050;BME280;7622;42.724;23.250;2022-11-20T04:16:45;93963.97;;;17.37;100.00
15050;BME280;7622;42.724;23.250;2022-11-20T04:19:13;93966.59;;;17.43;100.00
15050;BME280;7622;42.724;23.250;2022-11-20T04:21:41;93969.66;;;17.27;100.00
15050;BME280;7622;42.724;23.250;2022-11-20T04:24:08;93974.06;;;17.20;100.00
15050;BME280;7622;42.724;23.250;2022-11-20T04:26:37;93978.72;;;17.24;100.00
15050;BME280;7622;42.724;23.250;2022-11-20T04:29:04;93969.84;;;17.19;100.00
15050;BME280;7622;42.724;23.250;2022-11-20T04:31:32;93978.31;;;17.21;100.00
15050;BME280;7622;42.724;23.250;2022-11-20T04:34:00;93976.91;;;17.25;100.00
15050;BME280;7622;42.724;23.250;2022-11-20T04:36:28;93973.88;;;17.21;100.00
15050;BME280;7622;42.724;23.250;2022-11-20T04:38:56;93991.22;;;17.22;100.00
15050;BME280;7622;42.724;23.250;2022-11-20T04:41:25;93965.19;;;17.14;100.00
15050;BME280;7622;42.724;23.250;2022-11-20T04:43:55;93966.59;;;17.10;100.00
15050;BME280;7622;42.724;23.250;2022-11-20T04:46:25;93963.78;;;17.18;100.00
15050;BME280;7622;42.724;23.250;2022-11-20T04:48:52;93972.03;;;17.09;100.00
15050;BME280;7622;42.724;23.250;2022-11-20T04:51:19;93939.94;;;16.93;100.00
15050;BME280;7622;42.724;23.250;2022-11-20T04:53:46;93959.72;;;17.22;100.00
15050;BME280;7622;42.724;23.250;2022-11-20T04:56:13;93954.09;;;17.12;100.00
15050;BME280;7622;42.724;23.250;2022-11-20T04:58:40;93952.25;;;17.13;100.00
15050;BME280;7622;42.724;23.250;2022-11-20T05:01:10;93938.72;;;17.16;100.00
15050;BME280;7622;42.724;23.250;2022-11-20T05:03:37;93933.28;;;17.11;100.00
15050;BME280;7622;42.724;23.250;2022-11-20T05:06:05;93945.59;;;17.17;100.00
15050;BME280;7622;42.724;23.250;2022-11-20T05:08:33;93934.28;;;16.97;100.00
15050;BME280;7622;42.724;23.250;2022-11-20T05:11:01;93945.59;;;17.04;100.00
15050;BME280;7622;42.724;23.250;2022-11-20T05:13:28;93939.53;;;17.10;100.00
15050;BME280;7622;42.724;23.250;2022-11-20T05:15:55;93932.47;;;16.90;100.00
15050;BME280;7622;42.724;23.250;2022-11-20T05:18:23;93935.50;;;17.01;100.00
15050;BME280;7622;42.724;23.250;2022-11-20T05:20:55;93950.44;;;16.87;100.00
15050;BME280;7622;42.724;23.250;2022-11-20T05:23:22;93945.56;;;16.90;100.00
15050;BME280;7622;42.724;23.250;2022-11-20T05:25:52;93957.09;;;17.03;100.00
15050;BME280;7622;42.724;23.250;2022-11-20T05:28:18;93912.25;;;16.65;100.00
15050;BME280;7622;42.724;23.250;2022-11-20T05:30:45;93954.06;;;17.06;100.00
15050;BME280;7622;42.724;23.250;2022-11-20T05:33:12;93957.91;;;17.03;100.00
15050;BME280;7622;42.724;23.250;2022-11-20T05:35:40;93951.63;;;16.84;100.00
15050;BME280;7622;42.724;23.250;2022-11-20T05:38:07;93951.97;;;16.68;100.00
15050;BME280;7622;42.724;23.250;2022-11-20T05:40:34;93965.53;;;16.78;100.00
15050;BME280;7622;42.724;23.250;2022-11-20T05:43:01;93956.38;;;16.61;100.00
15050;BME280;7622;42.724;23.250;2022-11-20T05:45:27;93963.72;;;16.79;100.00
15050;BME280;7622;42.724;23.250;2022-11-20T05:47:57;93973.78;;;16.75;100.00
15050;BME280;7622;42.724;23.250;2022-11-20T05:50:24;93962.09;;;16.71;100.00
15050;BME280;7622;42.724;23.250;2022-11-20T05:52:52;93969.38;;;16.82;100.00
15050;BME280;7622;42.724;23.250;2022-11-20T05:55:19;93963.72;;;16.79;100.00
15050;BME280;7622;42.724;23.250;2022-11-20T05:57:46;93964.28;;;16.74;100.00
15050;BME280;7622;42.724;23.250;2022-11-20T06:00:14;93990.34;;;16.76;100.00
15050;BME280;7622;42.724;23.250;2022-11-20T06:02:40;93979.03;;;16.75;100.00
15050;BME280;7622;42.724;23.250;2022-11-20T06:05:08;93970.16;;;16.76;100.00
15050;BME280;7622;42.724;23.250;2022-11-20T06:07:35;93982.28;;;16.77;100.00
15050;BME280;7622;42.724;23.250;2022-11-20T06:10:03;93986.38;;;17.00;100.00
15050;BME280;7622;42.724;23.250;2022-11-20T06:12:31;93983.09;;;16.84;100.00
15050;BME280;7622;42.724;23.250;2022-11-20T06:14:58;93980.50;;;17.04;100.00
15050;BME280;7622;42.724;23.250;2022-11-20T06:17:25;93983.13;;;16.98;100.00
15050;BME280;7622;42.724;23.250;2022-11-20T06:19:51;93985.13;;;16.96;100.00
15050;BME280;7622;42.724;23.250;2022-11-20T06:22:18;93981.91;;;16.93;100.00
15050;BME280;7622;42.724;23.250;2022-11-20T06:24:45;93979.50;;;17.12;100.00
15050;BME280;7622;42.724;23.250;2022-11-20T06:27:13;93976.50;;;17.15;100.00
15050;BME280;7622;42.724;23.250;2022-11-20T06:29:40;93986.78;;;17.16;100.00
15050;BME280;7622;42.724;23.250;2022-11-20T06:32:07;93972.06;;;17.35;100.00
15050;BME280;7622;42.724;23.250;2022-11-20T06:34:33;93983.56;;;17.21;100.00
15050;BME280;7622;42.724;23.250;2022-11-20T06:37:00;93981.53;;;17.23;100.00
15050;BME280;7622;42.724;23.250;2022-11-20T06:39:27;93975.28;;;17.30;100.00
15050;BME280;7622;42.724;23.250;2022-11-20T06:41:54;93978.72;;;17.31;100.00
15050;BME280;7622;42.724;23.250;2022-11-20T06:44:22;93991.47;;;17.34;100.00
15050;BME280;7622;42.724;23.250;2022-11-20T06:46:49;94005.78;;;17.38;100.00
15050;BME280;7622;42.724;23.250;2022-11-20T06:49:15;93996.28;;;17.44;100.00
15050;BME280;7622;42.724;23.250;2022-11-20T06:51:42;93995.09;;;17.53;100.00
15050;BME280;7622;42.724;23.250;2022-11-20T06:54:09;93997.34;;;17.62;100.00
15050;BME280;7622;42.724;23.250;2022-11-20T06:56:36;93991.69;;;17.72;100.00
15050;BME280;7622;42.724;23.250;2022-11-20T06:59:04;93988.03;;;17.86;100.00
15050;BME280;7622;42.724;23.250;2022-11-20T07:01:32;93984.00;;;17.84;100.00
15050;BME280;7622;42.724;23.250;2022-11-20T07:04:00;94005.59;;;17.92;100.00
15050;BME280;7622;42.724;23.250;2022-11-20T07:06:27;94005.38;;;18.00;100.00
15050;BME280;7622;42.724;23.250;2022-11-20T07:08:54;94023.81;;;17.87;100.00
15050;BME280;7622;42.724;23.250;2022-11-20T07:11:20;94030.69;;;17.82;100.00
15050;BME280;7622;42.724;23.250;2022-11-20T07:13:47;94041.59;;;17.65;100.00
15050;BME280;7622;42.724;23.250;2022-11-20T07:16:14;94033.31;;;17.68;100.00
15050;BME280;7622;42.724;23.250;2022-11-20T07:18:42;94026.03;;;17.77;100.00
15050;BME280;7622;42.724;23.250;2022-11-20T07:21:09;94024.81;;;17.80;100.00
15050;BME280;7622;42.724;23.250;2022-11-20T07:23:36;94022.00;;;17.81;100.00
15050;BME280;7622;42.724;23.250;2022-11-20T07:26:04;94029.69;;;17.63;100.00
15050;BME280;7622;42.724;23.250;2022-11-20T07:28:31;94025.22;;;17.63;100.00
15050;BME280;7622;42.724;23.250;2022-11-20T07:30:58;94031.44;;;17.43;100.00
15050;BME280;7622;42.724;23.250;2022-11-20T07:33:25;93982.31;;;16.90;100.00
15050;BME280;7622;42.724;23.250;2022-11-20T07:35:53;94042.13;;;17.15;100.00
15050;BME280;7622;42.724;23.250;2022-11-20T07:38:20;94042.97;;;17.35;100.00
15050;BME280;7622;42.724;23.250;2022-11-20T07:40:47;94040.91;;;17.30;100.00
15050;BME280;7622;42.724;23.250;2022-11-20T07:43:14;94040.69;;;17.19;100.00
15050;BME280;7622;42.724;23.250;2022-11-20T07:45:40;94027.63;;;17.52;100.00
15050;BME280;7622;42.724;23.250;2022-11-20T07:48:07;94025.59;;;17.60;100.00
15050;BME280;7622;42.724;23.250;2022-11-20T07:50:34;94030.84;;;17.47;100.00
15050;BME280;7622;42.724;23.250;2022-11-20T07:53:03;94034.88;;;17.50;100.00
15050;BME280;7622;42.724;23.250;2022-11-20T07:55:31;94030.84;;;17.60;100.00
15050;BME280;7622;42.724;23.250;2022-11-20T07:57:58;94000.97;;;17.42;100.00
15050;BME280;7622;42.724;23.250;2022-11-20T08:00:25;94034.28;;;17.54;100.00
15050;BME280;7622;42.724;23.250;2022-11-20T08:02:52;94018.09;;;17.18;100.00
15050;BME280;7622;42.724;23.250;2022-11-20T08:05:19;94043.34;;;17.32;100.00
15050;BME280;7622;42.724;23.250;2022-11-20T08:07:46;94051.44;;;17.37;100.00
15050;BME280;7622;42.724;23.250;2022-11-20T08:10:15;94036.50;;;17.44;100.00
15050;BME280;7622;42.724;23.250;2022-11-20T08:12:45;94016.50;;;17.56;100.00
15050;BME280;7622;42.724;23.250;2022-11-20T08:15:30;94024.16;;;17.51;100.00
15050;BME280;7622;42.724;23.250;2022-11-20T08:18:02;94024.00;;;17.73;100.00
15050;BME280;7622;42.724;23.250;2022-11-20T08:20:29;94038.56;;;17.62;100.00
15050;BME280;7622;42.724;23.250;2022-11-20T08:23:00;94021.19;;;17.81;100.00
15050;BME280;7622;42.724;23.250;2022-11-20T08:25:29;94031.28;;;17.97;100.00
15050;BME280;7622;42.724;23.250;2022-11-20T08:27:57;94051.09;;;17.93;100.00
15050;BME280;7622;42.724;23.250;2022-11-20T08:30:25;94049.06;;;17.82;100.00
15050;BME280;7622;42.724;23.250;2022-11-20T08:32:52;94060.41;;;17.82;100.00
15050;BME280;7622;42.724;23.250;2022-11-20T08:35:19;94057.16;;;17.80;100.00
15050;BME280;7622;42.724;23.250;2022-11-20T08:37:46;94050.28;;;17.66;100.00
15050;BME280;7622;42.724;23.250;2022-11-20T08:40:13;94057.97;;;17.67;100.00
15050;BME280;7622;42.724;23.250;2022-11-20T08:42:47;94053.88;;;17.45;100.00
15050;BME280;7622;42.724;23.250;2022-11-20T08:45:14;94065.97;;;17.33;100.00
15050;BME280;7622;42.724;23.250;2022-11-20T08:47:41;94068.91;;;16.97;100.00
15050;BME280;7622;42.724;23.250;2022-11-20T08:50:09;94077.63;;;16.63;100.00
15050;BME280;7622;42.724;23.250;2022-11-20T08:52:35;94065.78;;;16.39;100.00
15050;BME280;7622;42.724;23.250;2022-11-20T08:55:04;94055.66;;;16.30;100.00
15050;BME280;7622;42.724;23.250;2022-11-20T08:57:31;94038.94;;;16.31;100.00
15050;BME280;7622;42.724;23.250;2022-11-20T09:00:00;94042.88;;;16.20;100.00
15050;BME280;7622;42.724;23.250;2022-11-20T09:02:27;94045.38;;;16.35;100.00
15050;BME280;7622;42.724;23.250;2022-11-20T09:04:54;94052.84;;;16.31;100.00
15050;BME280;7622;42.724;23.250;2022-11-20T09:07:20;94047.38;;;16.33;100.00
15050;BME280;7622;42.724;23.250;2022-11-20T09:09:47;94054.81;;;16.23;100.00
15050;BME280;7622;42.724;23.250;2022-11-20T09:12:14;94055.31;;;16.11;100.00
15050;BME280;7622;42.724;23.250;2022-11-20T09:14:41;94069.59;;;16.02;100.00
15050;BME280;7622;42.724;23.250;2022-11-20T09:17:11;94083.53;;;16.09;100.00
15050;BME280;7622;42.724;23.250;2022-11-20T09:19:40;94088.38;;;16.12;100.00
15050;BME280;7622;42.724;23.250;2022-11-20T09:22:07;94074.25;;;16.07;100.00
15050;BME280;7622;42.724;23.250;2022-11-20T09:24:33;94072.75;;;15.98;100.00
15050;BME280;7622;42.724;23.250;2022-11-20T09:27:04;94073.38;;;16.00;100.00
15050;BME280;7622;42.724;23.250;2022-11-20T09:29:31;94066.97;;;16.02;100.00
15050;BME280;7622;42.724;23.250;2022-11-20T09:31:57;94055.00;;;15.93;100.00
15050;BME280;7622;42.724;23.250;2022-11-20T09:34:26;94054.81;;;15.95;100.00
15050;BME280;7622;42.724;23.250;2022-11-20T09:36:52;94042.63;;;16.08;100.00
15050;BME280;7622;42.724;23.250;2022-11-20T09:39:19;94034.31;;;16.05;100.00
15050;BME280;7622;42.724;23.250;2022-11-20T09:42:19;94016.69;;;16.20;100.00
15050;BME280;7622;42.724;23.250;2022-11-20T09:45:09;94034.97;;;16.48;100.00
15050;BME280;7622;42.724;23.250;2022-11-20T09:48:01;94034.28;;;16.67;100.00
15050;BME280;7622;42.724;23.250;2022-11-20T09:50:36;94029.19;;;17.13;100.00
15050;BME280;7622;42.724;23.250;2022-11-20T09:53:12;94018.28;;;17.36;100.00
15050;BME280;7622;42.724;23.250;2022-11-20T09:55:40;94018.91;;;17.51;100.00
15050;BME280;7622;42.724;23.250;2022-11-20T09:58:13;94007.03;;;17.42;100.00
15050;BME280;7622;42.724;23.250;2022-11-20T10:00:42;94017.50;;;18.08;100.00
15050;BME280;7622;42.724;23.250;2022-11-20T10:03:13;94016.34;;;18.68;100.00
15050;BME280;7622;42.724;23.250;2022-11-20T10:05:45;94012.84;;;18.81;100.00
15050;BME280;7622;42.724;23.250;2022-11-20T10:08:17;94015.69;;;18.86;100.00
15050;BME280;7622;42.724;23.250;2022-11-20T10:10:47;94013.84;;;19.24;100.00
15050;BME280;7622;42.724;23.250;2022-11-20T10:13:28;94015.03;;;20.10;100.00
15050;BME280;7622;42.724;23.250;2022-11-20T10:16:07;94009.75;;;20.10;100.00
15050;BME280;7622;42.724;23.250;2022-11-20T10:18:45;94000.91;;;19.79;100.00
15050;BME280;7622;42.724;23.250;2022-11-20T10:21:26;94017.72;;;19.15;100.00
15050;BME280;7622;42.724;23.250;2022-11-20T10:24:24;94021.50;;;19.01;100.00
15050;BME280;7622;42.724;23.250;2022-11-20T10:27:03;94014.22;;;18.90;100.00
15050;BME280;7622;42.724;23.250;2022-11-20T10:29:34;94010.50;;;18.66;100.00
15050;BME280;7622;42.724;23.250;2022-11-20T10:32:03;94032.31;;;17.69;100.00
15050;BME280;7622;42.724;23.250;2022-11-20T10:34:35;94032.47;;;17.48;100.00
15050;BME280;7622;42.724;23.250;2022-11-20T10:37:12;94039.28;;;17.16;100.00
15050;BME280;7622;42.724;23.250;2022-11-20T10:39:49;93984.84;;;16.64;100.00
15050;BME280;7622;42.724;23.250;2022-11-20T10:42:23;94022.22;;;16.73;100.00
15050;BME280;7622;42.724;23.250;2022-11-20T10:45:00;94019.69;;;16.51;100.00
15050;BME280;7622;42.724;23.250;2022-11-20T10:47:31;94001.81;;;16.27;100.00
15050;BME280;7622;42.724;23.250;2022-11-20T10:50:02;94007.91;;;16.00;100.00
15050;BME280;7622;42.724;23.250;2022-11-20T10:52:37;94020.00;;;15.73;100.00
15050;BME280;7622;42.724;23.250;2022-11-20T10:55:16;94034.38;;;15.34;100.00
15050;BME280;7622;42.724;23.250;2022-11-20T10:57:53;94042.69;;;15.02;100.00
15050;BME280;7622;42.724;23.250;2022-11-20T11:00:24;94039.88;;;14.82;100.00
15050;BME280;7622;42.724;23.250;2022-11-20T11:02:52;94036.31;;;14.69;100.00
15050;BME280;7622;42.724;23.250;2022-11-20T11:05:31;94037.63;;;14.43;100.00
15050;BME280;7622;42.724;23.250;2022-11-20T11:08:00;94048.13;;;14.20;100.00
15050;BME280;7622;42.724;23.250;2022-11-20T11:10:32;94034.69;;;13.79;100.00
15050;BME280;7622;42.724;23.250;2022-11-20T11:13:01;94025.38;;;13.48;100.00
15050;BME280;7622;42.724;23.250;2022-11-20T11:15:35;94012.28;;;13.33;100.00
15050;BME280;7622;42.724;23.250;2022-11-20T11:18:03;93996.78;;;13.17;100.00
15050;BME280;7622;42.724;23.250;2022-11-20T11:20:30;94007.59;;;13.06;100.00
15050;BME280;7622;42.724;23.250;2022-11-20T11:22:59;94006.25;;;13.10;100.00
15050;BME280;7622;42.724;23.250;2022-11-20T11:25:29;93999.78;;;13.06;100.00
15050;BME280;7622;42.724;23.250;2022-11-20T11:27:58;94002.81;;;13.09;100.00
15050;BME280;7622;42.724;23.250;2022-11-20T11:30:26;93979.63;;;12.99;100.00
15050;BME280;7622;42.724;23.250;2022-11-20T11:33:05;93976.28;;;13.14;100.00
15050;BME280;7622;42.724;23.250;2022-11-20T11:35:33;93983.09;;;13.15;100.00
15050;BME280;7622;42.724;23.250;2022-11-20T11:38:06;93980.69;;;13.13;100.00
15050;BME280;7622;42.724;23.250;2022-11-20T11:40:38;94001.66;;;13.20;100.00
15050;BME280;7622;42.724;23.250;2022-11-20T11:43:16;94006.59;;;13.29;100.00
15050;BME280;7622;42.724;23.250;2022-11-20T11:45:58;94008.81;;;13.40;100.00
15050;BME280;7622;42.724;23.250;2022-11-20T11:48:24;94011.78;;;13.52;100.00
15050;BME280;7622;42.724;23.250;2022-11-20T11:50:51;93975.06;;;13.39;100.00
15050;BME280;7622;42.724;23.250;2022-11-20T11:53:22;93993.09;;;13.93;100.00
15050;BME280;7622;42.724;23.250;2022-11-20T11:55:56;94010.03;;;13.97;100.00
15050;BME280;7622;42.724;23.250;2022-11-20T11:58:34;94014.81;;;14.23;100.00
15050;BME280;7622;42.724;23.250;2022-11-20T12:01:13;94006.41;;;14.27;100.00
15050;BME280;7622;42.724;23.250;2022-11-20T12:03:44;94024.69;;;14.27;100.00
15050;BME280;7622;42.724;23.250;2022-11-20T12:06:18;94042.72;;;14.37;100.00
15050;BME280;7622;42.724;23.250;2022-11-20T12:08:50;94030.56;;;14.29;100.00
15050;BME280;7622;42.724;23.250;2022-11-20T12:11:24;94030.19;;;14.32;100.00
15050;BME280;7622;42.724;23.250;2022-11-20T12:13:58;94032.53;;;14.56;100.00
15050;BME280;7622;42.724;23.250;2022-11-20T12:16:30;94029.28;;;14.54;100.00
15050;BME280;7622;42.724;23.250;2022-11-20T12:19:01;94038.84;;;14.47;100.00
15050;BME280;7622;42.724;23.250;2022-11-20T12:21:34;94031.56;;;14.43;100.00
15050;BME280;7622;42.724;23.250;2022-11-20T12:27:33;94016.78;;;14.35;100.00
15050;BME280;7622;42.724;23.250;2022-11-20T12:30:07;94021.66;;;14.38;100.00
15050;BME280;7622;42.724;23.250;2022-11-20T12:32:48;94022.16;;;14.34;100.00
15050;BME280;7622;42.724;23.250;2022-11-20T12:35:30;94006.97;;;14.37;100.00
15050;BME280;7622;42.724;23.250;2022-11-20T12:38:13;93998.25;;;14.45;100.00
15050;BME280;7622;42.724;23.250;2022-11-20T12:40:53;93985.72;;;14.40;100.00
15050;BME280;7622;42.724;23.250;2022-11-20T12:43:25;94003.22;;;14.61;100.00
15050;BME280;7622;42.724;23.250;2022-11-20T12:46:18;93998.06;;;14.68;100.00
15050;BME280;7622;42.724;23.250;2022-11-20T12:48:57;94002.00;;;14.57;100.00
15050;BME280;7622;42.724;23.250;2022-11-20T12:51:52;93999.91;;;14.52;100.00
15050;BME280;7622;42.724;23.250;2022-11-20T12:54:51;93991.75;;;14.41;100.00
15050;BME280;7622;42.724;23.250;2022-11-20T12:57:29;93975.63;;;14.08;100.00
15050;BME280;7622;42.724;23.250;2022-11-20T13:00:12;93958.69;;;14.04;100.00
15050;BME280;7622;42.724;23.250;2022-11-20T13:03:21;93990.94;;;14.11;100.00
15050;BME280;7622;42.724;23.250;2022-11-20T13:05:59;93978.16;;;14.16;100.00